Time;durP1;ratioP1;P1;durP2;ratioP2;P2;SDS_P1;SDS_P2;PMS_P1;PMS_P2;Temp;Humidity;BMP_temperature;BMP_pressure;BME280_temperature;BME280_humidity;BME280_pressure;Samples;Min_cycle;Max_cycle;Signal;HPM_P1;HPM_P2
2021/10/16 00:00:10;;;;;;;5.50;3.65;;;;;;;16.90;54.35;101752.50;350729;28;1109;-65
2021/10/16 00:00:27;;;;;;;5.95;3.60;;;;;;;16.53;54.13;101690.41;349192;28;1066;-63
2021/10/16 00:00:39;;;;;;;5.90;3.65;;;;;;;16.90;53.90;101748.97;349420;28;995;-65
2021/10/16 00:00:51;;;;;;;5.97;3.60;;;;;;;17.00;54.04;101768.03;349231;28;798;-62
2021/10/16 00:01:03;;;;;;;5.90;4.00;;;;;;;16.81;54.24;101733.44;347869;28;1102;-63
2021/10/16 00:01:20;;;;;;;6.30;4.30;;;;;;;17.04;54.15;101772.28;347850;28;1156;-61
2021/10/16 00:01:33;;;;;;;6.85;4.07;;;;;;;16.94;54.41;101755.91;347801;28;1113;-65
2021/10/16 00:01:50;;;;;;;6.90;3.78;;;;;;;16.82;54.04;101741.34;347888;28;1105;-66
2021/10/16 00:02:03;;;;;;;5.97;3.50;;;;;;;16.65;53.99;101704.03;347711;28;1180;-61
2021/10/16 00:02:20;;;;;;;6.10;3.53;;;;;;;17.03;54.09;101771.41;347869;28;1089;-61
2021/10/16 00:02:32;;;;;;;6.10;3.50;;;;;;;16.94;53.93;101753.25;347870;28;1010;-64
2021/10/16 00:02:50;;;;;;;5.53;3.60;;;;;;;16.69;54.16;101716.28;347800;28;1062;-61
2021/10/16 00:03:02;;;;;;;5.68;3.70;;;;;;;17.04;54.07;101772.28;348569;28;1038;-66
2021/10/16 00:03:14;;;;;;;5.80;3.78;;;;;;;17.03;53.97;101767.91;349354;28;1014;-62
2021/10/16 00:03:31;;;;;;;6.40;3.76;;;;;;;16.97;54.44;101760.22;349595;28;1451;-60
2021/10/16 00:03:43;;;;;;;6.47;3.63;;;;;;;16.95;54.11;101757.63;350602;28;1210;-62
2021/10/16 00:04:00;;;;;;;6.55;3.70;;;;;;;16.72;54.13;101724.09;350698;28;967;-61
2021/10/16 00:04:12;;;;;;;6.75;3.90;;;;;;;16.69;54.10;101716.28;349328;28;717;-67
2021/10/16 00:04:25;;;;;;;6.22;3.83;;;;;;;17.03;54.08;101771.41;349145;28;1148;-64
2021/10/16 00:04:42;;;;;;;6.18;3.80;;;;;;;16.77;54.20;101728.25;349293;28;1010;-64
2021/10/16 00:04:59;;;;;;;6.05;3.63;;;;;;;16.95;54.12;101757.63;349489;28;1038;-62
2021/10/16 00:05:11;;;;;;;6.18;3.72;;;;;;;16.61;54.00;101698.03;349438;28;1002;-61
2021/10/16 00:05:23;;;;;;;6.47;3.85;;;;;;;16.91;54.24;101751.56;349494;28;1124;-64
2021/10/16 00:05:40;;;;;;;6.80;3.92;;;;;;;16.73;54.04;101728.47;350984;28;1041;-62
2021/10/16 00:05:52;;;;;;;6.38;3.85;;;;;;;16.73;54.02;101720.50;350965;28;1430;-62
2021/10/16 00:06:09;;;;;;;6.55;3.75;;;;;;;16.99;53.83;101767.19;350915;28;1469;-62
2021/10/16 00:06:22;;;;;;;6.60;3.60;;;;;;;16.93;54.33;101751.53;349394;28;1144;-64
2021/10/16 00:06:34;;;;;;;6.38;3.65;;;;;;;16.79;54.25;101727.34;349441;28;768;-63
2021/10/16 00:06:51;;;;;;;6.25;3.97;;;;;;;16.96;54.05;101756.69;349449;28;1089;-64
2021/10/16 00:07:05;;;;;;;5.85;3.80;;;;;;;16.95;54.15;101762.06;347981;28;944;-64
2021/10/16 00:07:17;;;;;;;6.07;3.67;;;;;;;17.00;54.17;101760.94;347943;28;1113;-67
2021/10/16 00:07:29;;;;;;;6.20;3.80;;;;;;;16.76;54.18;101723.03;347993;28;1078;-66
2021/10/16 00:07:46;;;;;;;6.35;3.90;;;;;;;16.62;54.08;101702.38;348017;28;1034;-64
2021/10/16 00:08:03;;;;;;;6.65;3.80;;;;;;;16.44;54.13;101669.59;348100;28;1085;-66
2021/10/16 00:08:16;;;;;;;6.97;3.60;;;;;;;16.97;53.85;101762.88;348212;28;1077;-64
2021/10/16 00:08:33;;;;;;;6.40;3.67;;;;;;;16.93;54.17;101763.00;349216;28;1332;-65
2021/10/16 00:08:46;;;;;;;6.20;3.80;;;;;;;16.76;54.26;101731.84;348010;28;1226;-65
2021/10/16 00:08:58;;;;;;;6.85;3.90;;;;;;;16.75;54.46;101730.13;349466;28;1092;-65
2021/10/16 00:09:10;;;;;;;7.60;3.95;;;;;;;16.95;54.20;101764.72;350992;28;1084;-62
2021/10/16 00:09:27;;;;;;;6.98;3.96;;;;;;;16.99;53.82;101772.50;349474;28;1041;-62
2021/10/16 00:09:39;;;;;;;6.03;3.67;;;;;;;17.01;54.11;101778.63;349593;28;1204;-63
2021/10/16 00:09:51;;;;;;;5.80;3.50;;;;;;;17.01;54.30;101773.28;349454;28;1088;-63
2021/10/16 00:10:09;;;;;;;6.07;3.42;;;;;;;16.89;54.24;101753.41;349537;28;1081;-61
2021/10/16 00:10:21;;;;;;;6.32;3.60;;;;;;;16.87;54.24;101751.78;349605;28;1143;-66
2021/10/16 00:10:38;;;;;;;6.03;3.55;;;;;;;16.73;54.43;101732.00;350258;28;1191;-64
2021/10/16 00:10:50;;;;;;;5.90;3.70;;;;;;;16.80;54.14;101740.53;350879;28;1096;-66
2021/10/16 00:11:02;;;;;;;5.90;3.70;;;;;;;16.76;53.92;101736.31;350932;28;1477;-63
2021/10/16 00:11:19;;;;;;;6.10;3.70;;;;;;;16.98;53.93;101761.94;351005;28;1100;-66
2021/10/16 00:11:32;;;;;;;6.63;3.75;;;;;;;16.99;54.28;101772.50;350891;28;1092;-64
2021/10/16 00:11:44;;;;;;;6.97;3.90;;;;;;;16.55;54.27;101706.25;350988;28;1096;-66
2021/10/16 00:12:01;;;;;;;6.47;4.00;;;;;;;17.00;54.35;101771.56;350951;28;799;-65
2021/10/16 00:12:13;;;;;;;6.15;3.75;;;;;;;16.98;54.26;101770.75;350774;28;985;-65
2021/10/16 00:12:31;;;;;;;6.72;3.78;;;;;;;16.87;54.17;101749.97;350933;28;1446;-68
2021/10/16 00:12:43;;;;;;;6.75;3.88;;;;;;;16.87;54.20;101752.63;350972;28;1069;-67
2021/10/16 00:13:00;;;;;;;6.10;3.60;;;;;;;17.00;53.97;101770.69;350978;28;899;-66
2021/10/16 00:13:18;;;;;;;6.78;3.88;;;;;;;16.79;54.35;101735.31;350942;28;1049;-68
2021/10/16 00:13:31;;;;;;;7.65;4.35;;;;;;;16.84;54.12;101746.59;349331;28;1105;-63
2021/10/16 00:13:43;;;;;;;7.50;4.35;;;;;;;17.00;54.15;101778.66;349198;28;1181;-68
2021/10/16 00:13:56;;;;;;;7.00;4.00;;;;;;;17.00;53.91;101773.34;348080;28;1181;-67
2021/10/16 00:14:13;;;;;;;6.20;3.50;;;;;;;16.44;54.09;101686.38;349498;28;1191;-66
2021/10/16 00:14:30;;;;;;;6.10;3.90;;;;;;;16.70;54.26;101725.97;348185;28;1174;-66
2021/10/16 00:14:42;;;;;;;5.93;3.90;;;;;;;16.93;54.36;101768.31;347865;28;1093;-68
2021/10/16 00:14:55;;;;;;;6.40;3.67;;;;;;;16.81;53.96;101734.31;348190;28;712;-62
2021/10/16 00:15:12;;;;;;;7.40;3.90;;;;;;;17.00;54.12;101773.34;348141;28;1093;-64
2021/10/16 00:15:26;;;;;;;7.20;3.90;;;;;;;16.93;53.93;101759.50;348275;28;1086;-66
2021/10/16 00:15:38;;;;;;;6.88;3.80;;;;;;;17.00;54.12;101776.00;349435;28;1085;-63
2021/10/16 00:15:50;;;;;;;7.15;4.00;;;;;;;16.59;53.83;101707.84;350486;28;1245;-66
2021/10/16 00:16:03;;;;;;;7.47;4.47;;;;;;;16.66;54.23;101716.41;350861;28;1108;-62
2021/10/16 00:16:23;;;;;;;6.97;4.22;;;;;;;16.93;54.33;101764.81;351027;28;830;-64
2021/10/16 00:16:35;;;;;;;7.40;4.10;;;;;;;16.65;54.33;101715.53;350920;28;888;-67
2021/10/16 00:16:52;;;;;;;8.40;4.60;;;;;;;16.79;54.21;101738.81;350846;28;1152;-66
2021/10/16 00:17:05;;;;;;;7.32;4.13;;;;;;;16.49;53.98;101691.47;350984;28;1115;-62
2021/10/16 00:17:22;;;;;;;5.97;3.60;;;;;;;16.73;54.03;101734.66;350981;28;1164;-63
2021/10/16 00:17:34;;;;;;;6.05;3.78;;;;;;;16.99;54.01;101780.47;350966;28;634;-62
2021/10/16 00:17:46;;;;;;;6.55;3.92;;;;;;;16.60;54.31;101706.94;350938;28;850;-63
2021/10/16 00:18:03;;;;;;;10.15;6.15;;;;;;;16.54;54.01;101702.75;350924;28;959;-65
2021/10/16 00:18:20;;;;;;;10.20;6.00;;;;;;;16.81;54.12;101738.78;350857;28;1053;-64
2021/10/16 00:18:32;;;;;;;7.45;4.38;;;;;;;16.55;54.35;101696.50;351044;28;1672;-64
2021/10/16 00:18:50;;;;;;;6.18;4.00;;;;;;;16.67;54.13;101716.34;350856;28;1093;-65
2021/10/16 00:19:02;;;;;;;6.07;3.92;;;;;;;16.58;54.01;101706.13;349793;28;1237;-66
2021/10/16 00:19:19;;;;;;;6.78;3.78;;;;;;;16.98;54.18;101770.75;349499;28;1077;-64
2021/10/16 00:19:31;;;;;;;7.50;3.90;;;;;;;16.67;54.26;101718.13;349600;28;1164;-61
2021/10/16 00:19:44;;;;;;;7.65;3.90;;;;;;;16.81;54.16;101739.63;348035;28;1081;-65
2021/10/16 00:20:01;;;;;;;7.95;3.90;;;;;;;16.57;53.99;101705.28;348099;28;1038;-68
2021/10/16 00:20:13;;;;;;;7.25;3.90;;;;;;;16.73;54.37;101731.13;347930;28;854;-65
2021/10/16 00:20:30;;;;;;;6.18;3.72;;;;;;;16.57;54.17;101707.94;348110;28;1152;-64
2021/10/16 00:20:42;;;;;;;6.00;3.70;;;;;;;16.98;54.08;101776.06;348082;28;1149;-64
2021/10/16 00:21:00;;;;;;;6.05;3.60;;;;;;;16.72;54.15;101730.28;348865;28;1199;-62
2021/10/16 00:21:12;;;;;;;6.78;3.90;;;;;;;16.99;54.04;101774.31;349494;28;1002;-65
2021/10/16 00:21:29;;;;;;;7.10;4.00;;;;;;;16.99;54.22;101774.31;349466;28;1089;-63
2021/10/16 00:21:41;;;;;;;6.50;3.80;;;;;;;16.70;54.31;101718.84;349948;28;1113;-64
2021/10/16 00:21:53;;;;;;;5.97;3.70;;;;;;;16.98;54.13;101770.75;350815;28;1101;-65
2021/10/16 00:22:10;;;;;;;6.45;4.45;;;;;;;16.54;54.22;101702.75;350885;28;1029;-66
2021/10/16 00:22:24;;;;;;;6.90;4.70;;;;;;;16.58;53.99;101706.13;350873;28;1105;-66
2021/10/16 00:22:41;;;;;;;7.10;4.05;;;;;;;16.99;54.25;101776.97;350933;28;1073;-61
2021/10/16 00:22:58;;;;;;;7.18;3.90;;;;;;;16.98;53.96;101769.91;350942;28;903;-65
2021/10/16 00:23:10;;;;;;;7.57;4.95;;;;;;;16.89;54.15;101758.72;350970;28;1057;-67
2021/10/16 00:23:22;;;;;;;7.55;5.32;;;;;;;16.98;54.16;101769.91;350918;28;1089;-64
2021/10/16 00:23:35;;;;;;;7.82;5.30;;;;;;;16.89;54.09;101760.50;350957;28;1041;-63
2021/10/16 00:23:52;;;;;;;7.25;4.60;;;;;;;16.71;54.09;101723.22;350799;28;1136;-62
2021/10/16 00:24:09;;;;;;;7.40;3.95;;;;;;;16.87;54.07;101757.09;350277;28;1179;-66
2021/10/16 00:24:21;;;;;;;7.50;3.80;;;;;;;16.97;54.32;101774.34;350042;28;1201;-64
2021/10/16 00:24:33;;;;;;;6.97;3.58;;;;;;;16.42;54.11;101682.06;351048;28;760;-62
2021/10/16 00:24:50;;;;;;;6.25;3.88;;;;;;;16.69;53.92;101727.75;349643;28;1504;-66
2021/10/16 00:25:04;;;;;;;6.20;3.83;;;;;;;16.97;53.96;101771.69;349561;28;1142;-62
2021/10/16 00:25:16;;;;;;;5.53;3.80;;;;;;;16.92;54.11;101769.25;349490;28;1086;-64
2021/10/16 00:25:33;;;;;;;5.93;3.80;;;;;;;16.69;53.89;101727.75;349598;28;1109;-66
2021/10/16 00:25:45;;;;;;;6.43;3.70;;;;;;;16.86;54.33;101752.69;349471;28;1054;-64
2021/10/16 00:26:02;;;;;;;6.05;3.80;;;;;;;16.97;53.97;101771.69;349525;28;1164;-63
2021/10/16 00:26:15;;;;;;;5.85;3.88;;;;;;;16.92;54.08;101765.72;349423;28;1120;-66
2021/10/16 00:26:33;;;;;;;6.88;4.72;;;;;;;16.71;53.87;101727.69;349537;28;1082;-66
2021/10/16 00:26:50;;;;;;;9.00;6.10;;;;;;;16.61;54.15;101722.78;349542;28;1173;-62
2021/10/16 00:27:02;;;;;;;8.95;5.43;;;;;;;16.79;54.24;101745.94;347929;28;1089;-61
2021/10/16 00:27:19;;;;;;;7.75;4.18;;;;;;;16.80;54.09;101748.50;348135;28;926;-66
2021/10/16 00:27:31;;;;;;;6.88;3.83;;;;;;;16.59;54.26;101719.34;348051;28;1140;-61
2021/10/16 00:27:44;;;;;;;6.28;3.75;;;;;;;16.66;54.24;101722.59;348128;28;1089;-62
2021/10/16 00:28:01;;;;;;;6.80;3.90;;;;;;;16.70;54.24;101733.94;348009;28;1084;-68
2021/10/16 00:28:13;;;;;;;7.47;3.92;;;;;;;16.92;54.25;101765.72;348085;28;998;-62
2021/10/16 00:28:25;;;;;;;7.22;3.97;;;;;;;16.91;54.18;101766.63;347998;28;1055;-66
2021/10/16 00:28:43;;;;;;;6.70;3.90;;;;;;;16.95;54.16;101770.03;348000;28;1089;-65
2021/10/16 00:28:55;;;;;;;6.55;3.80;;;;;;;16.92;53.84;101768.38;347954;28;1066;-64
2021/10/16 00:29:12;;;;;;;6.72;3.70;;;;;;;16.56;54.41;101707.97;348050;28;1049;-63
2021/10/16 00:29:25;;;;;;;6.70;3.72;;;;;;;16.56;54.22;101707.97;349071;28;1405;-61
2021/10/16 00:29:42;;;;;;;6.57;4.38;;;;;;;16.96;53.84;101775.28;346764;28;1098;-65
2021/10/16 00:29:55;;;;;;;7.10;4.50;;;;;;;16.74;54.12;101736.41;346733;28;1275;-61
2021/10/16 00:30:12;;;;;;;7.15;4.13;;;;;;;16.97;54.00;101771.69;348053;28;1038;-65
2021/10/16 00:30:25;;;;;;;6.60;4.00;;;;;;;16.97;53.99;101766.38;348014;28;1114;-62
2021/10/16 00:30:37;;;;;;;6.13;3.90;;;;;;;16.59;53.93;101711.38;348048;28;1101;-65
2021/10/16 00:30:50;;;;;;;6.45;4.18;;;;;;;16.84;54.17;101751.91;348091;28;1089;-66
2021/10/16 00:31:07;;;;;;;8.25;5.10;;;;;;;16.97;54.01;101776.16;347423;28;1148;-64
2021/10/16 00:31:19;;;;;;;7.82;4.95;;;;;;;16.65;54.24;101722.63;348051;28;1146;-67
2021/10/16 00:31:31;;;;;;;7.07;4.22;;;;;;;16.87;54.27;101755.28;348246;28;1084;-65
2021/10/16 00:31:48;;;;;;;7.60;4.80;;;;;;;16.90;54.15;101763.13;349430;28;1556;-61
2021/10/16 00:32:00;;;;;;;8.00;4.82;;;;;;;16.39;54.20;101680.41;349431;28;1093;-67
2021/10/16 00:32:13;;;;;;;7.22;4.25;;;;;;;16.51;54.15;101696.72;349396;28;1093;-61
2021/10/16 00:32:30;;;;;;;7.35;4.07;;;;;;;16.54;54.12;101710.72;349473;28;1124;-65
2021/10/16 00:32:42;;;;;;;7.82;4.90;;;;;;;16.38;53.96;101681.34;349189;28;1100;-67
2021/10/16 00:32:54;;;;;;;7.85;5.00;;;;;;;16.47;54.32;101695.13;349526;28;1120;-67
2021/10/16 00:33:12;;;;;;;6.93;4.63;;;;;;;16.82;53.93;101748.47;350899;28;1183;-63
2021/10/16 00:33:29;;;;;;;6.85;4.40;;;;;;;16.97;53.98;101773.50;350924;28;1172;-63
2021/10/16 00:33:41;;;;;;;6.93;4.60;;;;;;;16.96;54.14;101775.28;350942;28;943;-68
2021/10/16 00:33:59;;;;;;;7.22;4.68;;;;;;;16.88;54.00;101764.13;350868;28;1077;-69
2021/10/16 00:34:11;;;;;;;6.95;4.30;;;;;;;16.96;54.16;101775.28;350964;28;1164;-68
2021/10/16 00:34:23;;;;;;;6.75;4.13;;;;;;;16.85;53.95;101764.25;350905;28;1081;-68
2021/10/16 00:34:40;;;;;;;6.53;4.15;;;;;;;16.61;54.25;101716.63;350079;28;1300;-68
2021/10/16 00:34:52;;;;;;;6.05;4.00;;;;;;;16.95;53.86;101773.56;350835;28;1025;-66
2021/10/16 00:35:05;;;;;;;6.45;3.92;;;;;;;16.88;53.98;101759.66;350630;28;1273;-68
2021/10/16 00:35:22;;;;;;;7.10;4.00;;;;;;;16.74;53.87;101743.47;349600;28;1096;-65
2021/10/16 00:35:34;;;;;;;6.90;4.07;;;;;;;16.96;53.85;101771.78;349517;28;1089;-69
2021/10/16 00:35:51;;;;;;;6.32;4.18;;;;;;;16.49;54.01;101690.59;349402;28;1675;-68
2021/10/16 00:36:04;;;;;;;6.40;4.30;;;;;;;16.88;54.24;101762.31;349299;28;1089;-67
2021/10/16 00:36:16;;;;;;;6.45;4.30;;;;;;;16.54;54.06;101704.56;349589;28;1117;-68
2021/10/16 00:36:33;;;;;;;7.00;4.40;;;;;;;16.88;54.20;101762.31;350650;28;1226;-67
2021/10/16 00:36:50;;;;;;;8.38;5.95;;;;;;;16.83;54.14;101753.69;349343;28;1325;-69
2021/10/16 00:37:02;;;;;;;8.90;6.28;;;;;;;16.56;54.18;101708.88;349336;28;1102;-68
2021/10/16 00:37:20;;;;;;;7.57;4.90;;;;;;;16.95;54.04;101773.56;349389;28;1494;-66
2021/10/16 00:37:32;;;;;;;7.40;4.50;;;;;;;16.51;54.17;101702.88;349522;28;1042;-62
2021/10/16 00:37:49;;;;;;;7.75;4.35;;;;;;;16.47;53.93;101698.66;349474;28;1156;-69
2021/10/16 00:38:01;;;;;;;7.10;4.40;;;;;;;16.49;53.76;101696.78;349324;28;1030;-64
2021/10/16 00:38:13;;;;;;;6.97;4.40;;;;;;;16.41;54.11;101689.16;349231;28;1081;-68
2021/10/16 00:38:30;;;;;;;7.03;4.38;;;;;;;16.95;53.85;101772.69;349520;28;876;-68
2021/10/16 00:38:42;;;;;;;7.03;4.47;;;;;;;16.95;53.88;101772.69;350053;28;1116;-68
2021/10/16 00:39:00;;;;;;;7.20;4.50;;;;;;;16.91;54.13;101763.97;350865;28;2107;-68
2021/10/16 00:39:12;;;;;;;7.63;4.50;;;;;;;16.95;53.88;101775.34;350798;28;1021;-69
2021/10/16 00:39:24;;;;;;;8.63;4.68;;;;;;;16.50;54.03;101698.53;350909;28;1085;-69
2021/10/16 00:39:41;;;;;;;7.78;4.70;;;;;;;16.54;54.00;101713.38;350121;28;1233;-65
2021/10/16 00:39:54;;;;;;;6.93;4.55;;;;;;;16.94;54.06;101771.84;350385;28;1194;-68
2021/10/16 00:40:08;;;;;;;6.82;4.40;;;;;;;16.87;53.94;101763.25;350763;28;1144;-68
2021/10/16 00:40:20;;;;;;;6.93;4.65;;;;;;;16.91;54.01;101766.63;349862;28;1243;-66
2021/10/16 00:40:32;;;;;;;8.52;6.15;;;;;;;16.61;54.12;101725.44;349383;28;1062;-68
2021/10/16 00:40:50;;;;;;;8.90;6.05;;;;;;;16.46;54.06;101696.91;349510;28;1129;-62
2021/10/16 00:41:02;;;;;;;7.30;4.65;;;;;;;16.87;54.18;101759.75;349421;28;1057;-69
2021/10/16 00:41:14;;;;;;;7.97;4.55;;;;;;;16.84;54.03;101757.22;349375;28;1933;-61
2021/10/16 00:41:31;;;;;;;8.05;4.72;;;;;;;16.91;53.93;101766.63;349553;28;1109;-68
2021/10/16 00:41:43;;;;;;;7.72;4.75;;;;;;;16.83;53.84;101755.47;350553;28;1223;-68
2021/10/16 00:42:00;;;;;;;8.50;4.65;;;;;;;16.91;53.82;101766.63;350935;28;1156;-63
2021/10/16 00:42:12;;;;;;;8.25;4.50;;;;;;;16.91;53.89;101770.16;350770;28;1164;-70
2021/10/16 00:42:25;;;;;;;7.28;4.38;;;;;;;16.71;54.30;101735.66;350998;28;1041;-68
2021/10/16 00:42:52;;;;;;;7.05;4.57;;;;;;;16.92;53.93;101769.25;350953;28;1112;-69
2021/10/16 00:43:09;;;;;;;7.55;4.72;;;;;;;16.73;54.26;101732.00;350795;28;1124;-67
2021/10/16 00:43:21;;;;;;;7.63;4.50;;;;;;;16.44;53.88;101683.72;350933;28;831;-69
2021/10/16 00:43:33;;;;;;;7.57;4.50;;;;;;;16.69;54.00;101730.41;350979;28;1089;-70
2021/10/16 00:43:45;;;;;;;7.22;4.60;;;;;;;16.90;54.26;101757.81;350930;28;1155;-67
2021/10/16 00:44:23;;;;;;;7.00;4.70;;;;;;;16.88;54.03;101761.47;350867;28;816;-65
2021/10/16 00:44:36;;;;;;;8.05;4.78;;;;;;;16.60;54.09;101714.91;350897;28;1012;-69
2021/10/16 00:44:48;;;;;;;7.10;4.43;;;;;;;16.60;53.78;101712.25;350577;28;1225;-68
2021/10/16 00:45:03;;;;;;;7.35;4.50;;;;;;;16.92;54.24;101769.25;350022;28;1202;-68
2021/10/16 00:45:21;;;;;;;8.25;4.43;;;;;;;16.91;53.97;101770.16;350736;28;1045;-62
2021/10/16 00:45:33;;;;;;;8.07;4.50;;;;;;;16.67;54.25;101726.97;349530;28;1210;-69
2021/10/16 00:45:50;;;;;;;7.25;4.40;;;;;;;16.47;54.23;101695.13;349505;28;1033;-62
2021/10/16 00:46:03;;;;;;;7.20;4.45;;;;;;;16.89;54.03;101766.72;349472;28;1436;-65
2021/10/16 00:46:15;;;;;;;7.45;4.50;;;;;;;16.66;54.15;101733.22;349349;28;1168;-67
2021/10/16 00:46:32;;;;;;;6.70;4.50;;;;;;;16.89;54.19;101764.06;349475;28;1089;-69
2021/10/16 00:46:46;;;;;;;6.78;4.55;;;;;;;16.91;54.11;101763.97;349579;28;1058;-69
2021/10/16 00:46:58;;;;;;;7.20;4.72;;;;;;;16.79;54.05;101757.41;349474;28;1184;-68
2021/10/16 00:47:10;;;;;;;7.47;4.70;;;;;;;16.86;53.77;101760.66;349559;28;1034;-69
2021/10/16 00:47:28;;;;;;;8.15;4.70;;;;;;;16.57;54.24;101713.25;349372;28;1034;-66
2021/10/16 00:47:41;;;;;;;8.10;4.80;;;;;;;16.60;54.13;101715.75;349531;28;1089;-66
2021/10/16 00:47:54;;;;;;;6.65;4.50;;;;;;;16.72;53.95;101735.59;349453;28;1086;-68
2021/10/16 00:48:11;;;;;;;7.32;4.60;;;;;;;16.84;54.17;101754.56;349509;28;946;-69
2021/10/16 00:48:23;;;;;;;7.53;4.85;;;;;;;16.62;54.14;101720.97;349526;28;1030;-70
2021/10/16 00:48:35;;;;;;;7.55;4.70;;;;;;;16.59;53.80;101715.81;349332;28;1085;-65
2021/10/16 00:48:52;;;;;;;7.53;4.80;;;;;;;16.42;53.89;101682.91;349595;28;1089;-69
2021/10/16 00:49:04;;;;;;;7.07;4.78;;;;;;;16.51;54.04;101702.03;349562;28;1105;-69
2021/10/16 00:49:22;;;;;;;7.80;4.95;;;;;;;16.39;53.86;101682.19;349373;28;1069;-68
2021/10/16 00:49:34;;;;;;;7.70;4.90;;;;;;;16.88;53.85;101761.47;349614;28;1022;-68
2021/10/16 00:49:51;;;;;;;6.68;4.72;;;;;;;16.60;53.98;101720.22;349523;28;1093;-66
2021/10/16 00:50:04;;;;;;;6.43;4.70;;;;;;;16.90;54.07;101765.78;350109;28;1210;-68
2021/10/16 00:50:18;;;;;;;6.50;4.70;;;;;;;16.87;53.77;101765.91;349516;28;1178;-68
2021/10/16 00:50:30;;;;;;;7.38;4.70;;;;;;;16.87;53.82;101765.06;349517;28;1080;-69
2021/10/16 00:50:43;;;;;;;7.38;4.65;;;;;;;16.55;53.92;101708.91;350494;28;1183;-68
2021/10/16 00:51:00;;;;;;;6.78;4.35;;;;;;;16.90;54.09;101767.56;350958;28;1100;-68
2021/10/16 00:51:12;;;;;;;7.05;4.20;;;;;;;16.83;54.17;101755.47;350880;28;1074;-70
2021/10/16 00:51:24;;;;;;;7.55;4.45;;;;;;;16.83;54.13;101756.34;350761;28;795;-69
2021/10/16 00:51:42;;;;;;;7.88;4.70;;;;;;;16.70;54.17;101734.78;350933;28;1089;-69
2021/10/16 00:51:56;;;;;;;7.72;4.70;;;;;;;16.61;54.16;101727.25;350892;28;1038;-69
2021/10/16 00:52:08;;;;;;;7.38;4.47;;;;;;;16.70;54.17;101737.44;349556;28;1152;-69
2021/10/16 00:52:20;;;;;;;7.35;4.50;;;;;;;16.71;53.84;101736.50;349493;28;1065;-69
2021/10/16 00:52:39;;;;;;;7.47;5.07;;;;;;;16.63;54.14;101721.88;349466;28;1093;-68
2021/10/16 00:52:52;;;;;;;7.68;5.45;;;;;;;16.58;54.03;101720.25;348046;28;1078;-69
2021/10/16 00:53:04;;;;;;;7.43;5.28;;;;;;;16.87;54.35;101757.09;347990;28;1042;-67
2021/10/16 00:53:22;;;;;;;6.85;4.90;;;;;;;16.34;53.94;101677.06;347990;28;835;-69
2021/10/16 00:53:39;;;;;;;8.13;5.15;;;;;;;16.62;54.10;101728.94;348120;28;1038;-64
2021/10/16 00:53:51;;;;;;;8.52;4.93;;;;;;;16.88;53.90;101767.63;348070;28;1153;-69
2021/10/16 00:54:07;;;;;;;7.97;4.80;;;;;;;16.88;53.82;101764.13;348095;28;1094;-69
2021/10/16 00:54:21;;;;;;;7.18;4.93;;;;;;;16.36;53.82;101683.19;347972;28;1065;-62
2021/10/16 00:54:34;;;;;;;6.97;4.90;;;;;;;16.61;53.89;101725.44;347969;28;1093;-63
2021/10/16 00:54:51;;;;;;;8.85;5.65;;;;;;;16.79;53.91;101762.72;348864;28;1078;-69
2021/10/16 00:55:11;;;;;;;8.52;5.60;;;;;;;16.88;54.00;101775.59;349541;28;1229;-63
2021/10/16 00:55:24;;;;;;;7.63;5.00;;;;;;;16.67;53.83;101732.28;349981;28;1250;-66
2021/10/16 00:55:41;;;;;;;7.80;4.80;;;;;;;16.73;54.07;101742.63;350899;28;1089;-69
2021/10/16 00:55:54;;;;;;;8.10;4.93;;;;;;;16.80;53.97;101748.50;349626;28;1331;-64
2021/10/16 00:56:07;;;;;;;8.90;5.00;;;;;;;16.72;54.22;101740.91;349508;28;1006;-69
2021/10/16 00:56:19;;;;;;;8.35;4.90;;;;;;;16.81;54.03;101760.88;349494;28;1153;-69
2021/10/16 00:56:32;;;;;;;7.95;4.85;;;;;;;16.65;54.15;101734.13;349401;28;1102;-61
2021/10/16 00:56:51;;;;;;;7.90;5.15;;;;;;;16.47;53.88;101705.75;349620;28;903;-66
2021/10/16 00:57:04;;;;;;;8.35;5.22;;;;;;;16.50;54.13;101713.56;349400;28;1405;-69
2021/10/16 00:57:21;;;;;;;9.30;5.07;;;;;;;16.33;54.17;101682.47;349475;28;1145;-69
2021/10/16 00:57:38;;;;;;;8.05;4.85;;;;;;;16.87;54.24;101768.56;349384;28;1046;-69
2021/10/16 00:57:50;;;;;;;7.47;4.70;;;;;;;16.45;54.06;101698.72;349499;28;1188;-68
2021/10/16 00:58:08;;;;;;;7.90;4.60;;;;;;;16.63;54.24;101721.88;349419;28;1097;-64
2021/10/16 00:58:23;;;;;;;7.55;4.60;;;;;;;16.69;54.05;101737.53;349532;28;1006;-64
2021/10/16 00:58:35;;;;;;;6.85;4.57;;;;;;;16.74;53.96;101739.06;349410;28;1168;-65
2021/10/16 00:58:53;;;;;;;7.05;4.53;;;;;;;16.85;54.02;101759.78;349498;28;908;-69
2021/10/16 00:59:06;;;;;;;8.73;4.72;;;;;;;16.46;53.96;101696.91;349439;28;1101;-68
2021/10/16 00:59:24;;;;;;;8.93;5.07;;;;;;;16.88;54.23;101769.44;349502;28;1188;-66
2021/10/16 00:59:41;;;;;;;8.35;4.90;;;;;;;16.56;53.78;101722.13;349414;28;1143;-69
2021/10/16 00:59:53;;;;;;;8.43;4.70;;;;;;;16.45;53.67;101696.06;349389;28;1085;-66
2021/10/16 01:00:11;;;;;;;7.57;4.90;;;;;;;16.58;54.15;101719.41;349534;28;1012;-66
2021/10/16 01:00:23;;;;;;;7.07;5.00;;;;;;;16.80;53.95;101758.28;350064;28;1187;-62
2021/10/16 01:00:40;;;;;;;7.70;4.80;;;;;;;16.67;54.05;101734.94;350908;28;1061;-68
2021/10/16 01:00:52;;;;;;;7.82;4.75;;;;;;;16.53;54.23;101711.66;350981;28;1182;-64
2021/10/16 01:01:05;;;;;;;7.13;4.43;;;;;;;16.64;54.02;101727.09;349345;28;1419;-67
2021/10/16 01:01:22;;;;;;;6.90;4.35;;;;;;;16.88;53.96;101767.63;349475;28;1077;-68
2021/10/16 01:01:35;;;;;;;6.97;4.55;;;;;;;16.81;53.90;101755.56;349440;28;1176;-67
2021/10/16 01:01:52;;;;;;;6.63;4.60;;;;;;;16.85;53.83;101758.94;349459;28;1085;-69
2021/10/16 01:02:18;;;;;;;7.65;4.80;;;;;;;16.88;54.00;101770.28;349185;28;1918;-69
2021/10/16 01:02:31;;;;;;;7.68;5.00;;;;;;;16.82;53.93;101753.78;349432;28;1081;-67
2021/10/16 01:02:44;;;;;;;6.45;4.70;;;;;;;16.84;54.25;101760.75;349457;28;1058;-69
2021/10/16 01:02:56;;;;;;;7.10;4.82;;;;;;;16.55;53.81;101707.13;349532;28;1077;-67
2021/10/16 01:03:13;;;;;;;7.63;4.93;;;;;;;16.76;54.06;101749.59;349507;28;1177;-68
2021/10/16 01:03:30;;;;;;;7.40;4.88;;;;;;;16.34;54.23;101684.19;349532;28;922;-68
2021/10/16 01:03:42;;;;;;;7.80;4.78;;;;;;;16.86;53.90;101763.31;348005;28;1030;-68
2021/10/16 01:03:54;;;;;;;7.65;4.55;;;;;;;16.73;54.10;101733.78;348010;28;1233;-61
2021/10/16 01:04:12;;;;;;;6.78;4.53;;;;;;;16.79;54.10;101748.59;347999;28;1025;-68
2021/10/16 01:04:29;;;;;;;7.35;4.80;;;;;;;16.85;54.19;101762.44;347762;28;1037;-69
2021/10/16 01:04:41;;;;;;;7.43;4.90;;;;;;;16.75;54.22;101745.22;347985;28;1108;-67
2021/10/16 01:04:53;;;;;;;7.50;4.90;;;;;;;16.83;54.01;101761.66;348089;28;1086;-69
2021/10/16 01:05:07;;;;;;;7.20;4.70;;;;;;;16.74;54.16;101743.47;348014;28;1086;-64
2021/10/16 01:05:19;;;;;;;6.93;4.60;;;;;;;16.80;53.75;101752.97;348025;28;1010;-64
2021/10/16 01:05:37;;;;;;;6.88;4.68;;;;;;;16.72;53.82;101738.25;348252;28;1636;-68
2021/10/16 01:05:50;;;;;;;7.25;4.55;;;;;;;16.65;53.80;101727.94;349485;28;1081;-66
2021/10/16 01:06:07;;;;;;;7.03;4.70;;;;;;;16.87;53.98;101760.59;349598;28;1173;-68
2021/10/16 01:06:19;;;;;;;6.88;4.85;;;;;;;16.82;54.01;101753.78;350862;28;1097;-68
2021/10/16 01:06:32;;;;;;;6.90;4.78;;;;;;;16.33;54.18;101669.19;350899;28;1121;-63
2021/10/16 01:06:49;;;;;;;6.82;4.50;;;;;;;16.36;53.81;101675.22;350694;28;1153;-69
2021/10/16 01:07:01;;;;;;;7.53;4.75;;;;;;;16.83;54.03;101753.69;350825;28;1078;-68
2021/10/16 01:07:13;;;;;;;7.80;4.93;;;;;;;16.64;54.03;101726.25;350928;28;1111;-64
2021/10/16 01:07:31;;;;;;;7.47;4.93;;;;;;;16.87;54.08;101759.75;350302;28;1194;-61
2021/10/16 01:07:43;;;;;;;8.23;4.90;;;;;;;16.80;54.19;101745.84;349458;28;686;-67
2021/10/16 01:08:03;;;;;;;7.97;4.70;;;;;;;16.37;54.00;101679.59;349519;28;1089;-67
2021/10/16 01:08:16;;;;;;;8.07;4.70;;;;;;;16.60;53.72;101718.41;349502;28;1046;-68
2021/10/16 01:08:33;;;;;;;8.48;4.90;;;;;;;16.52;54.16;101701.94;349554;28;777;-68
2021/10/16 01:08:45;;;;;;;7.65;4.70;;;;;;;16.84;54.04;101751.91;349380;28;1082;-69
2021/10/16 01:09:08;;;;;;;7.32;4.55;;;;;;;16.84;54.09;101760.75;349457;28;1102;-69
2021/10/16 01:09:20;;;;;;;7.18;4.78;;;;;;;16.63;54.16;101721.88;349407;28;1116;-69